createdAt,value
2022-08-26T00:01:52.500Z,93891.44
2022-08-26T00:04:21.560Z,93891.44
2022-08-26T00:06:49.227Z,93881.34
2022-08-26T00:09:16.956Z,93880.56
2022-08-26T00:11:46.279Z,93882.44
2022-08-26T00:14:15.226Z,93880.56
2022-08-26T00:16:47.669Z,93880.84
2022-08-26T00:19:16.897Z,93886.28
2022-08-26T00:21:44.546Z,93889.00
2022-08-26T00:24:13.567Z,93886.59
2022-08-26T00:26:41.613Z,93890.13
2022-08-26T00:29:12.273Z,93887.38
2022-08-26T00:31:40.452Z,93887.38
2022-08-26T00:34:09.493Z,93880.31
2022-08-26T00:36:39.602Z,93884.94
2022-08-26T00:39:08.519Z,93884.94
2022-08-26T00:41:36.177Z,93882.22
2022-08-26T00:44:04.315Z,93884.94
2022-08-26T00:46:36.385Z,93875.97
2022-08-26T00:49:12.074Z,93877.09
2022-08-26T00:51:43.776Z,93884.16
2022-08-26T00:54:11.409Z,93877.88
2022-08-26T00:56:43.140Z,93877.09
2022-08-26T00:59:11.881Z,93872.75
2022-08-26T01:01:41.339Z,93875.47
2022-08-26T01:04:09.536Z,93878.97
2022-08-26T01:06:37.370Z,93875.47
2022-08-26T01:09:05.163Z,93878.97
2022-08-26T01:11:32.953Z,93877.09
2022-08-26T01:14:02.043Z,93882.81
2022-08-26T01:16:30.548Z,93882.03
2022-08-26T01:19:01.524Z,93881.19
2022-08-26T01:21:34.003Z,93870.31
2022-08-26T01:24:03.293Z,93867.56
2022-08-26T01:26:32.195Z,93879.56
2022-08-26T01:29:01.386Z,93876.84
2022-08-26T01:31:30.195Z,93876.06
2022-08-26T01:34:00.709Z,93873.63
2022-08-26T01:36:28.346Z,93876.34
2022-08-26T01:38:56.038Z,93869.28
2022-08-26T01:41:27.517Z,93874.72
2022-08-26T01:43:57.261Z,93870.91
2022-08-26T01:46:25.636Z,93869.78
2022-08-26T01:48:55.019Z,93868.44
2022-08-26T01:51:23.472Z,93870.38
2022-08-26T01:53:51.108Z,93869.56
2022-08-26T01:56:19.258Z,93871.47
2022-08-26T01:58:52.332Z,93870.66
2022-08-26T02:01:20.081Z,93867.94
2022-08-26T02:03:51.388Z,93873.38
2022-08-26T02:06:19.600Z,93876.94
2022-08-26T02:08:48.977Z,93871.75
2022-08-26T02:11:18.436Z,93879.13
2022-08-26T02:13:47.386Z,93879.94
2022-08-26T02:16:18.373Z,93873.97
2022-08-26T02:18:46.864Z,93874.78
2022-08-26T02:21:14.773Z,93878.59
2022-08-26T02:23:42.922Z,93875.88
2022-08-26T02:26:16.513Z,93876.97
2022-08-26T02:28:47.522Z,93873.47
2022-08-26T02:31:15.245Z,93866.41
2022-08-26T02:33:44.545Z,93869.13
2022-08-26T02:36:13.495Z,93868.28
2022-08-26T02:38:43.258Z,93864.78
2022-08-26T02:41:11.266Z,93867.19
2022-08-26T02:43:38.884Z,93864.47
2022-08-26T02:46:07.403Z,93862.06
2022-08-26T02:48:35.126Z,93861.22
2022-08-26T02:51:05.490Z,93858.50
2022-08-26T02:53:35.669Z,93854.16
2022-08-26T02:56:04.232Z,93861.53
2022-08-26T02:58:31.937Z,93862.63
2022-08-26T03:00:59.670Z,93864.53
2022-08-26T03:03:29.349Z,93864.53
2022-08-26T03:05:58.479Z,93863.72
2022-08-26T03:08:27.816Z,93869.47
2022-08-26T03:10:55.585Z,93860.19
2022-08-26T03:13:23.665Z,93859.38
2022-08-26T03:15:51.381Z,93852.31
2022-08-26T03:18:19.018Z,93852.03
2022-08-26T03:20:48.293Z,93849.31
2022-08-26T03:23:16.457Z,93850.41
2022-08-26T03:25:51.051Z,93854.75
2022-08-26T03:28:19.380Z,93854.75
2022-08-26T03:30:49.068Z,93850.41
2022-08-26T03:33:16.755Z,93851.72
2022-08-26T03:35:45.125Z,93851.22
2022-08-26T03:38:13.017Z,93847.69
2022-08-26T03:40:40.921Z,93846.06
2022-08-26T03:43:10.363Z,93850.69
2022-08-26T03:45:38.509Z,93845.25
2022-08-26T03:48:06.411Z,93849.06
2022-08-26T03:50:34.465Z,93843.13
2022-08-26T03:53:03.574Z,93845.03
2022-08-26T03:55:32.428Z,93850.47
2022-08-26T03:58:00.841Z,93845.31
2022-08-26T04:00:29.839Z,93843.41
2022-08-26T04:02:57.612Z,93844.50
2022-08-26T04:05:25.567Z,93849.16
2022-08-26T04:07:53.176Z,93844.81
2022-08-26T04:10:28.664Z,93841.78
2022-08-26T04:12:58.693Z,93850.78
2022-08-26T04:15:26.897Z,93846.13
2022-08-26T04:17:57.358Z,93851.56
2022-08-26T04:20:25.494Z,93850.47
2022-08-26T04:22:53.098Z,93854.28
2022-08-26T04:25:21.218Z,93844.50
2022-08-26T04:27:48.819Z,93845.59
2022-08-26T04:30:19.946Z,93847.22
2022-08-26T04:32:47.643Z,93846.44
2022-08-26T04:35:16.805Z,93850.25
2022-08-26T04:37:44.924Z,93852.16
2022-08-26T04:40:13.097Z,93851.06
2022-08-26T04:42:40.800Z,93853.50
2022-08-26T04:45:09.920Z,93854.59
2022-08-26T04:47:38.404Z,93846.72
2022-08-26T04:50:07.496Z,93851.34
2022-08-26T04:52:36.625Z,93855.97
2022-08-26T04:55:06.537Z,93857.59
2022-08-26T04:57:36.015Z,93865.50
2022-08-26T05:00:04.848Z,93860.03
2022-08-26T05:02:32.679Z,93861.66
2022-08-26T05:05:00.529Z,93860.03
2022-08-26T05:07:28.488Z,93863.56
2022-08-26T05:09:57.585Z,93859.72
2022-08-26T05:12:25.233Z,93864.06
2022-08-26T05:14:53.418Z,93868.41
2022-08-26T05:17:21.050Z,93870.84
2022-08-26T05:19:50.091Z,93867.03
2022-08-26T05:22:18.361Z,93875.72
2022-08-26T05:24:46.502Z,93875.72
2022-08-26T05:27:15.795Z,93881.97
2022-08-26T05:29:45.405Z,93871.09
2022-08-26T05:32:13.783Z,93867.53
2022-08-26T05:34:42.908Z,93871.09
2022-08-26T05:37:11.002Z,93865.66
2022-08-26T05:39:41.430Z,93870.28
2022-08-26T05:42:11.683Z,93876.53
2022-08-26T05:44:53.957Z,93875.72
2022-08-26T05:47:24.128Z,93878.44
2022-08-26T05:49:51.974Z,93876.53
2022-08-26T05:52:20.130Z,93881.97
2022-08-26T05:54:47.857Z,93879.25
2022-08-26T05:57:15.535Z,93878.44
2022-08-26T05:59:44.643Z,93880.38
2022-08-26T06:02:14.100Z,93885.81
2022-08-26T06:04:42.039Z,93882.25
2022-08-26T06:07:11.932Z,93882.25
2022-08-26T06:09:41.480Z,93877.13
2022-08-26T06:12:09.678Z,93886.09
2022-08-26T06:14:37.593Z,93888.03
2022-08-26T06:17:06.917Z,93888.03
2022-08-26T06:19:37.414Z,93884.19
2022-08-26T06:22:29.109Z,93889.91
2022-08-26T06:25:14.392Z,93888.31
2022-08-26T06:27:42.006Z,93896.47
2022-08-26T06:30:10.678Z,93894.56
2022-08-26T06:32:39.724Z,93897.28
2022-08-26T06:35:11.925Z,93891.03
2022-08-26T06:37:40.158Z,93893.75
2022-08-26T06:40:09.691Z,93895.38
2022-08-26T06:42:39.277Z,93893.47
2022-08-26T06:45:08.380Z,93902.75
2022-08-26T06:47:36.473Z,93900.81
2022-08-26T06:50:06.194Z,93896.19
2022-08-26T06:52:33.848Z,93898.09
2022-08-26T06:55:02.413Z,93899.72
2022-08-26T06:57:32.921Z,93902.44
2022-08-26T07:00:02.758Z,93900.53
2022-08-26T07:02:30.645Z,93903.25
2022-08-26T07:04:58.318Z,93902.44
2022-08-26T07:07:27.642Z,93895.88
2022-08-26T07:09:55.296Z,93899.44
2022-08-26T07:12:23.035Z,93902.16
2022-08-26T07:14:52.935Z,93899.44
2022-08-26T07:17:21.565Z,93900.22
2022-08-26T07:19:53.574Z,93898.31
2022-08-26T07:22:21.582Z,93898.31
2022-08-26T07:24:50.906Z,93896.41
2022-08-26T07:27:20.271Z,93904.28
2022-08-26T07:29:50.718Z,93902.66
2022-08-26T07:32:20.404Z,93896.13
2022-08-26T07:34:50.771Z,93904.28
2022-08-26T07:37:18.417Z,93901.56
2022-08-26T07:39:47.925Z,93907.00
2022-08-26T07:42:18.910Z,93911.34
2022-08-26T07:44:46.949Z,93902.38
2022-08-26T07:47:25.885Z,93901.28
2022-08-26T07:49:54.950Z,93898.56
2022-08-26T07:52:26.217Z,93899.34
2022-08-26T07:54:54.707Z,93904.78
2022-08-26T07:57:24.207Z,93900.19
2022-08-26T07:59:52.072Z,93900.97
2022-08-26T08:02:21.770Z,93901.78
2022-08-26T08:04:49.397Z,93896.34
2022-08-26T08:07:17.019Z,93899.59
2022-08-26T08:09:44.653Z,93904.22
2022-08-26T08:12:14.235Z,93902.59
2022-08-26T08:14:45.340Z,93897.16
2022-08-26T08:17:12.986Z,93902.31
2022-08-26T08:19:40.669Z,93903.09
2022-08-26T08:22:16.977Z,93907.75
2022-08-26T08:24:45.770Z,93900.38
2022-08-26T08:27:22.854Z,93902.00
2022-08-26T08:29:54.325Z,93902.81
2022-08-26T08:32:22.969Z,93902.81
2022-08-26T08:34:50.627Z,93892.75
2022-08-26T08:37:18.313Z,93899.00
2022-08-26T08:39:46.415Z,93899.81
2022-08-26T08:42:32.484Z,93902.53
2022-08-26T08:45:04.733Z,93895.16
2022-08-26T08:47:35.049Z,93894.38
2022-08-26T08:50:07.102Z,93900.34
2022-08-26T08:52:36.186Z,93892.16
2022-08-26T08:55:04.407Z,93892.16
2022-08-26T08:57:41.707Z,93900.34
2022-08-26T09:00:14.372Z,93899.22
2022-08-26T09:02:46.101Z,93898.41
2022-08-26T09:05:17.420Z,93896.50
2022-08-26T09:07:47.122Z,93898.91
2022-08-26T09:10:33.672Z,93893.78
2022-08-26T09:13:03.625Z,93902.47
2022-08-26T09:15:37.604Z,93903.56
2022-08-26T09:18:08.601Z,93906.28
2022-08-26T09:20:45.595Z,93901.38
2022-08-26T09:23:13.456Z,93907.91
2022-08-26T09:25:48.039Z,93906.03
2022-08-26T09:28:18.618Z,93908.75
2022-08-26T09:30:48.319Z,93905.19
2022-08-26T09:33:17.540Z,93904.09
2022-08-26T09:35:48.649Z,93898.63
2022-08-26T09:38:24.223Z,93905.72
2022-08-26T09:40:59.216Z,93901.09
2022-08-26T09:43:28.464Z,93898.38
2022-08-26T09:46:14.413Z,93892.09
2022-08-26T09:48:43.471Z,93886.38
2022-08-26T09:51:28.566Z,93886.38
2022-08-26T09:53:57.950Z,93879.81
2022-08-26T09:56:27.592Z,93882.22
2022-08-26T09:58:55.955Z,93877.31
2022-08-26T10:01:30.601Z,93878.94
2022-08-26T10:04:05.442Z,93868.56
2022-08-26T10:06:39.873Z,93864.72
2022-08-26T10:09:09.782Z,93860.88
2022-08-26T10:11:40.685Z,93862.50
2022-08-26T10:14:10.877Z,93864.94
2022-08-26T10:16:42.572Z,93859.50
2022-08-26T10:19:12.229Z,93853.75
2022-08-26T10:21:52.279Z,93848.00
2022-08-26T10:24:33.105Z,93848.81
2022-08-26T10:27:03.276Z,93853.19
2022-08-26T10:29:34.315Z,93842.28
2022-08-26T10:32:05.813Z,93838.44
2022-08-26T10:34:33.598Z,93850.97
2022-08-26T10:37:13.450Z,93832.69
2022-08-26T10:39:46.273Z,93845.72
2022-08-26T10:42:17.133Z,93831.28
2022-08-26T10:44:45.944Z,93833.75
2022-08-26T10:47:20.192Z,93824.75
2022-08-26T10:49:48.332Z,93826.34
2022-08-26T10:52:18.928Z,93827.47
2022-08-26T10:54:47.576Z,93825.84
2022-08-26T10:57:16.793Z,93817.69
2022-08-26T10:59:51.963Z,93822.31
2022-08-26T11:02:25.170Z,93811.41
2022-08-26T11:04:55.787Z,93813.03
2022-08-26T11:07:31.794Z,93812.22
2022-08-26T11:10:00.335Z,93805.16
2022-08-26T11:12:58.300Z,93813.03
2022-08-26T11:15:58.480Z,93797.50
2022-08-26T11:18:55.870Z,93808.41
2022-08-26T11:22:04.992Z,93804.84
2022-08-26T11:25:01.766Z,93804.06
2022-08-26T11:28:03.399Z,93807.56
2022-08-26T11:30:42.661Z,93805.66
2022-08-26T11:33:11.650Z,93804.56
2022-08-26T11:35:52.730Z,93804.84
2022-08-26T11:38:26.470Z,93808.41
2022-08-26T11:41:08.867Z,93802.94
2022-08-26T11:43:36.505Z,93798.31
2022-08-26T11:46:07.008Z,93801.03
2022-08-26T11:48:37.665Z,93804.56
2022-08-26T11:51:08.524Z,93794.50
2022-08-26T11:53:37.662Z,93792.88
2022-08-26T11:56:07.266Z,93795.31
2022-08-26T11:58:35.140Z,93793.66
2022-08-26T12:01:05.300Z,93795.31
2022-08-26T12:03:40.679Z,93791.78
2022-08-26T12:06:14.648Z,93785.50
2022-08-26T12:08:43.900Z,93791.47
2022-08-26T12:11:13.710Z,93790.69
2022-08-26T12:13:42.609Z,93780.56
2022-08-26T12:16:10.555Z,93775.13
2022-08-26T12:18:39.078Z,93775.94
2022-08-26T12:21:15.959Z,93775.94
2022-08-26T12:23:45.092Z,93782.69
2022-08-26T12:26:22.446Z,93777.56
2022-08-26T12:28:54.610Z,93776.47
2022-08-26T12:31:24.794Z,93785.44
2022-08-26T12:33:52.546Z,93765.56
2022-08-26T12:36:25.267Z,93769.06
2022-08-26T12:38:56.442Z,93766.34
2022-08-26T12:41:43.481Z,93762.56
2022-08-26T12:44:32.113Z,93758.72
2022-08-26T12:47:03.834Z,93751.03
2022-08-26T12:49:32.104Z,93757.28
2022-08-26T12:52:01.086Z,93749.94
2022-08-26T12:54:51.531Z,93756.19
2022-08-26T12:57:26.554Z,93748.22
2022-08-26T12:59:54.162Z,93741.97
2022-08-26T13:02:35.763Z,93738.44
2022-08-26T13:05:03.477Z,93737.31
2022-08-26T13:07:32.510Z,93731.88
2022-08-26T13:10:00.879Z,93723.69
2022-08-26T13:12:30.643Z,93721.78
2022-08-26T13:14:59.625Z,93721.19
2022-08-26T13:17:28.067Z,93724.72
2022-08-26T13:19:58.957Z,93713.53
2022-08-26T13:22:29.584Z,93714.53
2022-08-26T13:24:59.034Z,93710.91
2022-08-26T13:27:27.589Z,93708.91
2022-08-26T13:29:57.166Z,93707.41
2022-08-26T13:32:27.170Z,93705.88
2022-08-26T13:34:55.702Z,93701.34
2022-08-26T13:37:24.305Z,93708.84
2022-08-26T13:40:06.039Z,93709.75
2022-08-26T13:42:34.529Z,93703.91
2022-08-26T13:45:02.571Z,93701.25
2022-08-26T13:47:30.777Z,93693.78
2022-08-26T13:49:58.838Z,93690.66
2022-08-26T13:52:30.609Z,93700.34
2022-08-26T13:54:59.265Z,93703.78
2022-08-26T13:57:29.985Z,93698.50
2022-08-26T13:59:59.161Z,93684.75
2022-08-26T14:02:27.427Z,93689.31
2022-08-26T14:04:56.114Z,93688.69
2022-08-26T14:07:24.309Z,93689.66
2022-08-26T14:09:52.360Z,93690.50
2022-08-26T14:12:20.384Z,93684.09
2022-08-26T14:14:50.403Z,93687.84
2022-08-26T14:17:19.523Z,93689.44
2022-08-26T14:19:49.325Z,93699.44
2022-08-26T14:22:17.644Z,93690.75
2022-08-26T14:24:45.759Z,93690.84
2022-08-26T14:27:13.526Z,93685.72
2022-08-26T14:29:41.417Z,93682.50
2022-08-26T14:32:13.252Z,93685.03
2022-08-26T14:34:41.466Z,93693.03
2022-08-26T14:37:13.553Z,93684.63
2022-08-26T14:39:43.056Z,93683.03
2022-08-26T14:42:11.301Z,93685.75
2022-08-26T14:44:40.009Z,93680.91
2022-08-26T14:47:07.899Z,93676.88
2022-08-26T14:49:37.205Z,93673.63
2022-08-26T14:52:05.348Z,93677.47
2022-08-26T14:54:32.094Z,93668.19
2022-08-26T14:57:00.921Z,93669.78
2022-08-26T14:59:29.397Z,93665.44
2022-08-26T15:01:57.499Z,93667.69
2022-08-26T15:04:25.730Z,93654.66
2022-08-26T15:06:56.338Z,93649.50
2022-08-26T15:09:24.428Z,93658.78
2022-08-26T15:11:53.030Z,93654.94
2022-08-26T15:14:20.851Z,93656.88
2022-08-26T15:16:48.811Z,93667.28
2022-08-26T15:19:16.905Z,93658.50
2022-08-26T15:21:45.511Z,93659.28
2022-08-26T15:24:15.099Z,93649.19
2022-08-26T15:26:42.766Z,93649.50
2022-08-26T15:29:10.509Z,93647.38
2022-08-26T15:31:38.462Z,93649.78
2022-08-26T15:34:08.042Z,93647.06
2022-08-26T15:36:37.406Z,93645.16
2022-08-26T15:39:06.572Z,93635.06
2022-08-26T15:41:35.730Z,93635.84
2022-08-26T15:44:04.001Z,93633.94
2022-08-26T15:46:32.460Z,93640.69
2022-08-26T15:49:00.679Z,93636.84
2022-08-26T15:51:29.990Z,93627.34
2022-08-26T15:53:58.532Z,93628.97
2022-08-26T15:56:26.882Z,93627.03
2022-08-26T15:58:56.368Z,93618.84
2022-08-26T16:01:27.775Z,93617.44
2022-08-26T16:03:55.958Z,93618.41
2022-08-26T16:06:25.257Z,93619.22
2022-08-26T16:08:53.321Z,93626.31
2022-08-26T16:11:21.334Z,93619.22
2022-08-26T16:13:49.076Z,93629.03
2022-08-26T16:16:18.383Z,93623.28
2022-08-26T16:18:46.352Z,93631.97
2022-08-26T16:21:16.344Z,93632.97
2022-08-26T16:23:45.394Z,93632.13
2022-08-26T16:26:14.787Z,93627.50
2022-08-26T16:28:43.488Z,93636.81
2022-08-26T16:31:11.362Z,93636.66
2022-08-26T16:33:40.627Z,93638.81
2022-08-26T16:36:08.983Z,93637.16
2022-08-26T16:38:37.506Z,93644.88
2022-08-26T16:41:05.268Z,93646.81
2022-08-26T16:43:32.915Z,93643.75
2022-08-26T16:46:00.675Z,93646.47
2022-08-26T16:48:28.711Z,93649.84
2022-08-26T16:50:57.717Z,93643.06
2022-08-26T16:53:25.374Z,93651.56
2022-08-26T16:55:53.010Z,93642.88
2022-08-26T16:58:22.377Z,93649.75
2022-08-26T17:00:50.274Z,93647.66
2022-08-26T17:03:17.989Z,93652.91
2022-08-26T17:05:45.651Z,93646.13
2022-08-26T17:08:21.816Z,93650.00
2022-08-26T17:10:55.215Z,93648.69
2022-08-26T17:13:29.678Z,93648.16
2022-08-26T17:16:04.233Z,93644.94
2022-08-26T17:18:33.260Z,93645.56
2022-08-26T17:21:01.653Z,93645.56
2022-08-26T17:23:30.665Z,93647.81
2022-08-26T17:25:58.308Z,93646.47
2022-08-26T17:28:25.962Z,93650.31
2022-08-26T17:30:53.657Z,93652.56
2022-08-26T17:33:24.527Z,93650.94
2022-08-26T17:35:52.942Z,93658.63
2022-08-26T17:38:20.700Z,93666.00
2022-08-26T17:40:49.725Z,93680.75
2022-08-26T17:43:17.748Z,93672.56
2022-08-26T17:45:45.441Z,93679.16
2022-08-26T17:48:13.244Z,93683.97
2022-08-26T17:50:41.203Z,93690.47
2022-08-26T17:53:09.158Z,93690.66
2022-08-26T17:55:45.980Z,93688.13
2022-08-26T17:58:15.076Z,93686.38
2022-08-26T18:00:43.975Z,93681.44
2022-08-26T18:03:11.851Z,93685.78
2022-08-26T18:05:39.616Z,93691.25
2022-08-26T18:08:07.317Z,93690.94
2022-08-26T18:10:35.043Z,93695.28
2022-08-26T18:13:02.928Z,93710.25
2022-08-26T18:15:32.433Z,93715.69
2022-08-26T18:18:00.225Z,93729.06
2022-08-26T18:20:28.006Z,93730.97
2022-08-26T18:22:55.833Z,93736.91
2022-08-26T18:25:23.582Z,93732.28
2022-08-26T18:27:51.385Z,93737.13
2022-08-26T18:30:20.755Z,93746.63
2022-08-26T18:32:50.611Z,93753.72
2022-08-26T18:35:18.470Z,93762.19
2022-08-26T18:37:47.266Z,93770.09
2022-08-26T18:40:16.086Z,93774.22
2022-08-26T18:42:44.019Z,93767.66
2022-08-26T18:45:16.005Z,93754.81
2022-08-26T18:47:44.149Z,93742.59
2022-08-26T18:50:13.585Z,93748.88
2022-08-26T18:52:41.390Z,93741.75
2022-08-26T18:55:09.397Z,93731.66
2022-08-26T18:57:37.093Z,93731.38
2022-08-26T19:00:07.697Z,93732.97
2022-08-26T19:02:35.622Z,93732.97
2022-08-26T19:05:03.996Z,93729.13
2022-08-26T19:07:36.581Z,93731.03
2022-08-26T19:10:08.295Z,93726.41
2022-08-26T19:12:36.355Z,93729.94
2022-08-26T19:15:04.343Z,93731.88
2022-08-26T19:17:32.134Z,93734.59
2022-08-26T19:19:59.934Z,93736.22
2022-08-26T19:22:27.754Z,93739.72
2022-08-26T19:24:56.887Z,93742.78
2022-08-26T19:27:24.713Z,93737.31
2022-08-26T19:29:52.539Z,93743.09
2022-08-26T19:32:24.356Z,93747.75
2022-08-26T19:34:52.214Z,93748.03
2022-08-26T19:37:23.253Z,93751.88
2022-08-26T19:39:51.334Z,93755.94
2022-08-26T19:42:20.354Z,93755.41
2022-08-26T19:45:05.614Z,93761.41
2022-08-26T19:47:33.253Z,93771.50
2022-08-26T19:50:01.725Z,93773.44
2022-08-26T19:52:30.381Z,93779.19
2022-08-26T19:54:58.073Z,93779.47
2022-08-26T19:57:27.147Z,93788.78
2022-08-26T19:59:54.950Z,93785.06
2022-08-26T20:02:22.858Z,93771.22
2022-08-26T20:04:50.557Z,93768.47
2022-08-26T20:07:19.068Z,93759.78
2022-08-26T20:09:46.934Z,93757.66
2022-08-26T20:12:15.351Z,93756.06
2022-08-26T20:14:44.492Z,93756.34
2022-08-26T20:17:12.261Z,93763.22
2022-08-26T20:19:57.305Z,93756.47
2022-08-26T20:22:25.385Z,93749.69
2022-08-26T20:24:56.061Z,93743.41
2022-08-26T20:27:27.605Z,93750.31
2022-08-26T20:30:08.513Z,93747.88
2022-08-26T20:32:36.344Z,93748.19
2022-08-26T20:35:04.194Z,93748.47
2022-08-26T20:37:31.849Z,93746.38
2022-08-26T20:39:59.516Z,93748.28
2022-08-26T20:42:27.208Z,93749.38
2022-08-26T20:44:55.192Z,93755.13
2022-08-26T20:47:24.309Z,93750.50
2022-08-26T20:49:52.390Z,93748.06
2022-08-26T20:52:20.367Z,93780.78
2022-08-26T20:54:47.991Z,93800.22
2022-08-26T20:57:15.651Z,93807.91
2022-08-26T20:59:43.497Z,93818.81
2022-08-26T21:02:11.122Z,93812.50
2022-08-26T21:04:40.370Z,93825.34
2022-08-26T21:07:08.195Z,93819.34
2022-08-26T21:09:35.865Z,93820.47
2022-08-26T21:12:04.066Z,93827.84
2022-08-26T21:14:31.773Z,93822.41
2022-08-26T21:16:59.562Z,93819.16
2022-08-26T21:19:27.225Z,93817.56
2022-08-26T21:21:56.289Z,93831.47
2022-08-26T21:26:51.416Z,93838.34
2022-08-26T21:29:21.862Z,93847.63
2022-08-26T21:31:49.556Z,93844.91
2022-08-26T21:34:17.798Z,93852.59
2022-08-26T21:36:45.587Z,93855.31
2022-08-26T21:39:15.140Z,93866.50
2022-08-26T21:41:43.288Z,93861.88
2022-08-26T21:44:11.138Z,93868.44
2022-08-26T21:46:38.964Z,93864.09
2022-08-26T21:49:08.350Z,93849.63
2022-08-26T21:51:38.222Z,93861.66
2022-08-26T21:54:10.744Z,93863.28
2022-08-26T21:56:41.891Z,93870.66
2022-08-26T21:59:09.654Z,93873.69
2022-08-26T22:01:37.690Z,93872.06
2022-08-26T22:04:06.820Z,93865.00
2022-08-26T22:06:35.275Z,93866.88
2022-08-26T22:09:02.956Z,93860.66
2022-08-26T22:11:30.665Z,93854.38
2022-08-26T22:13:59.626Z,93855.47
2022-08-26T22:16:28.533Z,93853.84
2022-08-26T22:18:56.222Z,93849.22
2022-08-26T22:21:24.933Z,93845.16
2022-08-26T22:23:57.871Z,93854.19
2022-08-26T22:26:27.267Z,93854.19
2022-08-26T22:28:58.429Z,93857.19
2022-08-26T22:31:38.048Z,93860.75
2022-08-26T22:34:07.615Z,93869.72
2022-08-26T22:36:35.244Z,93866.19
2022-08-26T22:39:02.864Z,93879.00
2022-08-26T22:41:30.481Z,93880.13
2022-08-26T22:44:02.500Z,93886.38
2022-08-26T22:46:32.877Z,93886.69
2022-08-26T22:49:00.495Z,93894.03
2022-08-26T22:51:28.154Z,93889.41
2022-08-26T22:53:55.838Z,93893.75
2022-08-26T22:56:23.818Z,93889.41
2022-08-26T22:58:51.441Z,93892.13
2022-08-26T23:01:19.121Z,93891.63
2022-08-26T23:03:48.147Z,93888.91
2022-08-26T23:06:15.898Z,93888.91
2022-08-26T23:08:45.263Z,93891.91
2022-08-26T23:11:13.562Z,93887.28
2022-08-26T23:13:41.415Z,93891.91
2022-08-26T23:16:11.505Z,93894.63
2022-08-26T23:18:39.650Z,93896.84
2022-08-26T23:21:08.777Z,93900.38
2022-08-26T23:23:37.316Z,93905.81
2022-08-26T23:26:06.341Z,93899.59
2022-08-26T23:28:34.433Z,93902.31
2022-08-26T23:31:02.045Z,93898.47
2022-08-26T23:33:49.652Z,93906.66
2022-08-26T23:36:18.467Z,93901.47
2022-08-26T23:38:52.868Z,93896.84
2022-08-26T23:41:21.124Z,93902.31
2022-08-26T23:43:48.926Z,93896.84
2022-08-26T23:46:16.539Z,93896.03
2022-08-26T23:48:44.136Z,93896.34
2022-08-26T23:51:29.588Z,93893.63
2022-08-26T23:53:58.824Z,93900.97
2022-08-26T23:56:26.656Z,93898.25
2022-08-26T23:58:54.597Z,93904.53
